createdAt,value
2023-01-26T00:03:34.630Z,100765.45
2023-01-26T00:08:42.418Z,100759.33
2023-01-26T00:13:46.278Z,100753.50
2023-01-26T00:18:50.067Z,100746.52
2023-01-26T00:23:54.050Z,100738.80
2023-01-26T00:28:57.606Z,100734.27
2023-01-26T00:34:01.021Z,100722.20
2023-01-26T00:39:04.746Z,100725.68
2023-01-26T00:44:08.357Z,100711.46
2023-01-26T00:49:11.977Z,100710.45
2023-01-26T00:54:15.694Z,100703.56
2023-01-26T00:59:19.215Z,100702.94
2023-01-26T01:04:22.728Z,100703.34
2023-01-26T01:09:26.553Z,100697.08
2023-01-26T01:14:30.308Z,100697.38
2023-01-26T01:19:33.787Z,100703.80
2023-01-26T01:24:37.883Z,100709.61
2023-01-26T01:29:41.328Z,100705.98
2023-01-26T01:34:47.514Z,100708.67
2023-01-26T01:39:50.918Z,100710.52
2023-01-26T01:45:32.424Z,100697.70
2023-01-26T01:50:39.649Z,100683.07
2023-01-26T01:55:43.551Z,100678.27
2023-01-26T02:00:46.887Z,100675.40
2023-01-26T02:06:22.432Z,100664.55
2023-01-26T02:11:45.217Z,100664.71
2023-01-26T02:16:48.715Z,100657.90
2023-01-26T02:21:53.592Z,100644.36
2023-01-26T02:26:57.485Z,100639.41
2023-01-26T02:32:00.895Z,100643.12
2023-01-26T02:37:04.424Z,100641.27
2023-01-26T02:42:26.561Z,100639.89
2023-01-26T02:47:30.107Z,100642.07
2023-01-26T02:52:33.807Z,100644.48
2023-01-26T02:57:37.722Z,100633.95
2023-01-26T03:02:42.578Z,100625.83
2023-01-26T03:07:46.499Z,100619.10
2023-01-26T03:12:50.014Z,100606.63
2023-01-26T03:18:13.291Z,100599.97
2023-01-26T03:23:35.137Z,100598.80
2023-01-26T03:28:38.549Z,100595.23
2023-01-26T03:33:42.172Z,100585.33
2023-01-26T03:38:45.785Z,100577.51
2023-01-26T03:44:07.737Z,100566.13
2023-01-26T03:49:29.985Z,100562.50
2023-01-26T03:54:52.344Z,100570.38
2023-01-26T03:59:56.079Z,100559.95
2023-01-26T04:05:18.431Z,100559.23
2023-01-26T04:10:23.174Z,100553.83
2023-01-26T04:15:45.007Z,100552.20
2023-01-26T04:21:07.376Z,100551.95
2023-01-26T04:26:10.780Z,100545.52
2023-01-26T04:31:16.486Z,100541.44
2023-01-26T04:36:20.063Z,100536.95
2023-01-26T04:41:24.254Z,100533.29
2023-01-26T04:46:28.066Z,100530.98
2023-01-26T04:51:31.529Z,100532.05
2023-01-26T04:56:36.673Z,100530.89
2023-01-26T05:01:40.813Z,100518.42
2023-01-26T05:06:44.747Z,100520.04
2023-01-26T05:11:48.267Z,100523.91
2023-01-26T05:16:51.717Z,100526.45
2023-01-26T05:21:55.282Z,100526.14
2023-01-26T05:27:18.664Z,100529.63
2023-01-26T05:32:22.492Z,100530.71
2023-01-26T05:37:27.687Z,100531.12
2023-01-26T05:42:31.164Z,100532.52
2023-01-26T05:47:34.774Z,100538.31
2023-01-26T05:52:38.601Z,100538.86
2023-01-26T05:57:42.119Z,100535.75
2023-01-26T06:02:47.536Z,100529.17
2023-01-26T06:07:52.214Z,100530.41
2023-01-26T06:12:55.739Z,100523.30
2023-01-26T06:18:02.018Z,100520.82
2023-01-26T06:23:06.037Z,100518.80
2023-01-26T06:28:09.553Z,100515.95
2023-01-26T06:33:13.173Z,100523.90
2023-01-26T06:38:16.892Z,100528.24
2023-01-26T06:43:20.203Z,100528.86
2023-01-26T06:48:25.770Z,100524.82
2023-01-26T06:53:42.076Z,100519.23
2023-01-26T06:58:45.605Z,100520.25
2023-01-26T07:03:50.045Z,100516.30
2023-01-26T07:08:53.443Z,100511.63
2023-01-26T07:13:57.455Z,100510.84
2023-01-26T07:19:01.399Z,100519.64
2023-01-26T07:24:05.256Z,100514.58
2023-01-26T07:29:08.838Z,100515.33
2023-01-26T07:34:13.060Z,100507.60
2023-01-26T07:39:16.379Z,100506.55
2023-01-26T07:44:20.006Z,100506.36
2023-01-26T07:49:24.026Z,100513.94
2023-01-26T07:54:27.440Z,100518.63
2023-01-26T07:59:31.193Z,100507.50
2023-01-26T08:04:34.573Z,100508.55
2023-01-26T08:09:38.190Z,100512.16
2023-01-26T08:14:47.094Z,100511.15
2023-01-26T08:19:50.751Z,100505.26
2023-01-26T08:24:54.266Z,100502.80
2023-01-26T08:29:57.884Z,100498.61
2023-01-26T08:35:01.404Z,100489.28
2023-01-26T08:40:05.731Z,100490.78
2023-01-26T08:45:10.041Z,100498.48
2023-01-26T08:50:13.610Z,100485.76
2023-01-26T08:55:17.513Z,100483.26
2023-01-26T09:00:22.323Z,100484.95
2023-01-26T09:05:25.874Z,100482.96
2023-01-26T09:10:29.491Z,100478.44
2023-01-26T09:15:32.907Z,100482.48
2023-01-26T09:20:38.572Z,100471.52
2023-01-26T09:25:42.084Z,100467.70
2023-01-26T09:30:45.805Z,100469.42
2023-01-26T09:35:50.341Z,100474.34
2023-01-26T09:40:56.633Z,100464.64
2023-01-26T09:46:18.784Z,100460.23
2023-01-26T09:52:00.875Z,100458.30
2023-01-26T09:57:16.715Z,100458.16
2023-01-26T10:02:34.395Z,100455.67
2023-01-26T10:07:37.962Z,100458.75
2023-01-26T10:12:41.485Z,100461.80
2023-01-26T10:17:47.395Z,100466.30
2023-01-26T10:23:02.677Z,100460.36
2023-01-26T10:28:19.573Z,100453.25
2023-01-26T10:33:32.849Z,100454.08
2023-01-26T10:38:36.642Z,100449.58
2023-01-26T10:44:00.121Z,100450.69
2023-01-26T10:49:09.677Z,100457.19
2023-01-26T10:54:20.063Z,100456.92
2023-01-26T10:59:33.931Z,100447.25
2023-01-26T11:04:37.835Z,100449.07
2023-01-26T11:09:41.557Z,100438.42
2023-01-26T11:15:04.437Z,100435.65
2023-01-26T11:20:45.024Z,100425.18
2023-01-26T11:26:13.923Z,100410.81
2023-01-26T11:31:33.150Z,100409.16
2023-01-26T11:36:39.486Z,100403.41
2023-01-26T11:42:13.528Z,100403.77
2023-01-26T11:47:38.945Z,100404.77
2023-01-26T11:52:49.223Z,100396.20
2023-01-26T11:58:08.406Z,100388.23
2023-01-26T12:03:48.579Z,100385.29
2023-01-26T12:09:23.226Z,100379.08
2023-01-26T12:14:42.916Z,100379.11
2023-01-26T12:20:05.284Z,100376.73
2023-01-26T12:25:33.992Z,100373.60
2023-01-26T12:30:43.948Z,100364.20
2023-01-26T12:36:13.069Z,100360.30
2023-01-26T12:41:33.189Z,100354.81
2023-01-26T12:46:43.748Z,100357.66
2023-01-26T12:52:18.905Z,100354.40
2023-01-26T12:57:30.206Z,100348.40
2023-01-26T13:02:36.257Z,100353.41
2023-01-26T13:07:40.924Z,100352.96
2023-01-26T13:12:48.647Z,100349.98
2023-01-26T13:17:58.292Z,100343.49
2023-01-26T13:23:01.811Z,100335.91
2023-01-26T13:28:13.630Z,100336.73
2023-01-26T13:33:23.385Z,100340.44
2023-01-26T13:38:45.338Z,100344.05
2023-01-26T13:43:58.896Z,100337.39
2023-01-26T13:49:02.594Z,100337.02
2023-01-26T13:54:18.108Z,100332.36
2023-01-26T13:59:23.141Z,100334.24
2023-01-26T14:04:28.094Z,100337.39
2023-01-26T14:09:34.328Z,100340.95
2023-01-26T14:14:38.417Z,100341.02
2023-01-26T14:19:42.544Z,100339.14
2023-01-26T14:24:50.492Z,100334.99
2023-01-26T14:29:53.863Z,100338.98
2023-01-26T14:35:00.886Z,100345.32
2023-01-26T14:40:30.807Z,100341.29
2023-01-26T14:45:34.730Z,100332.85
2023-01-26T14:50:39.853Z,100327.35
2023-01-26T14:55:44.618Z,100329.48
2023-01-26T15:00:50.508Z,100335.66
2023-01-26T15:06:19.006Z,100333.14
2023-01-26T15:11:53.743Z,100332.36
2023-01-26T15:16:57.052Z,100333.23
2023-01-26T15:22:00.969Z,100334.38
2023-01-26T15:27:07.764Z,100335.06
2023-01-26T15:32:29.478Z,100332.95
2023-01-26T15:37:35.074Z,100339.48
2023-01-26T15:42:38.800Z,100345.07
2023-01-26T15:47:42.203Z,100346.66
2023-01-26T15:52:45.617Z,100353.74
2023-01-26T15:57:49.440Z,100354.20
2023-01-26T16:02:52.956Z,100353.29
2023-01-26T16:07:56.482Z,100344.40
2023-01-26T16:13:00.294Z,100333.45
2023-01-26T16:18:04.220Z,100334.92
2023-01-26T16:23:32.107Z,100337.47
2023-01-26T16:28:35.517Z,100337.54
2023-01-26T16:33:39.030Z,100336.84
2023-01-26T16:38:43.075Z,100333.27
2023-01-26T16:43:46.473Z,100331.86
2023-01-26T16:48:50.405Z,100334.38
2023-01-26T16:53:54.719Z,100333.40
2023-01-26T16:59:01.527Z,100336.23
2023-01-26T17:04:05.859Z,100342.52
2023-01-26T17:09:10.705Z,100348.42
2023-01-26T17:14:14.288Z,100353.95
2023-01-26T17:19:17.842Z,100349.27
2023-01-26T17:24:21.278Z,100354.07
2023-01-26T17:29:24.766Z,100361.23
2023-01-26T17:34:28.809Z,100360.98
2023-01-26T17:39:32.310Z,100358.14
2023-01-26T17:44:35.831Z,100363.89
2023-01-26T17:49:39.444Z,100366.67
2023-01-26T17:54:42.871Z,100361.83
2023-01-26T17:59:46.372Z,100363.91
2023-01-26T18:22:44.303Z,100350.31
2023-01-26T18:27:47.815Z,100350.52
2023-01-26T18:32:51.843Z,100359.60
2023-01-26T18:37:55.464Z,100370.20
2023-01-26T18:42:58.906Z,100375.15
2023-01-26T18:48:02.392Z,100375.82
2023-01-26T18:53:05.699Z,100378.58
2023-01-26T18:58:09.118Z,100383.84
2023-01-26T19:03:12.544Z,100380.68
2023-01-26T19:08:17.889Z,100378.36
2023-01-26T19:13:21.093Z,100375.17
2023-01-26T19:18:24.710Z,100373.17
2023-01-26T19:23:28.330Z,100359.67
2023-01-26T19:28:31.641Z,100349.80
2023-01-26T19:33:35.359Z,100349.89
2023-01-26T19:38:40.012Z,100351.30
2023-01-26T19:43:44.668Z,100353.95
2023-01-26T19:48:49.294Z,100353.11
2023-01-26T19:53:56.460Z,100348.11
2023-01-26T19:59:03.416Z,100343.45
2023-01-26T20:04:09.571Z,100340.52
2023-01-26T20:09:12.971Z,100341.95
2023-01-26T20:14:16.317Z,100342.02
2023-01-26T20:19:19.795Z,100346.09
2023-01-26T20:24:23.364Z,100342.90
2023-01-26T20:29:26.826Z,100343.02
2023-01-26T20:34:30.447Z,100334.91
2023-01-26T20:39:34.500Z,100335.10
2023-01-26T20:44:38.703Z,100335.10
2023-01-26T20:49:44.472Z,100346.05
2023-01-26T20:54:48.296Z,100351.45
2023-01-26T20:59:52.954Z,100354.27
2023-01-26T21:04:56.362Z,100351.58
2023-01-26T21:09:59.973Z,100349.48
2023-01-26T21:15:05.372Z,100349.70
2023-01-26T21:20:10.698Z,100351.11
2023-01-26T21:25:14.507Z,100344.60
2023-01-26T21:30:18.512Z,100344.45
2023-01-26T21:35:21.949Z,100347.62
2023-01-26T21:40:25.725Z,100351.77
2023-01-26T21:45:48.051Z,100357.67
2023-01-26T21:51:14.379Z,100367.27
2023-01-26T21:56:17.819Z,100368.85
2023-01-26T22:01:22.545Z,100372.55
2023-01-26T22:06:26.873Z,100377.46
2023-01-26T22:11:30.184Z,100375.59
2023-01-26T22:16:33.950Z,100370.65
2023-01-26T22:21:38.040Z,100367.89
2023-01-26T22:26:42.569Z,100364.64
2023-01-26T22:31:46.127Z,100364.86
2023-01-26T22:36:49.816Z,100364.96
2023-01-26T22:41:53.263Z,100361.37
2023-01-26T22:46:56.732Z,100354.21
2023-01-26T22:52:00.462Z,100348.33
2023-01-26T22:57:04.933Z,100347.30
2023-01-26T23:02:08.203Z,100348.78
2023-01-26T23:07:11.820Z,100343.48
2023-01-26T23:12:15.333Z,100342.96
2023-01-26T23:17:18.753Z,100343.30
2023-01-26T23:22:22.482Z,100340.52
2023-01-26T23:27:26.291Z,100342.54
2023-01-26T23:32:29.711Z,100342.83
2023-01-26T23:37:33.217Z,100341.95
2023-01-26T23:42:55.820Z,100339.67
2023-01-26T23:48:00.836Z,100341.16
2023-01-26T23:53:04.656Z,100335.15
2023-01-26T23:58:08.889Z,100334.98
